Time;durP1;ratioP1;P1;durP2;ratioP2;P2;SDS_P1;SDS_P2;PMS_P1;PMS_P2;Temp;Humidity;BMP_temperature;BMP_pressure;BME280_temperature;BME280_humidity;BME280_pressure;Samples;Min_cycle;Max_cycle;Signal;HPM_P1;HPM_P2
2022/06/07 00:01:39;;;;;;;2.47;0.43;;;13.40;58.30;;;;;;4993077;28;20018;-62
2022/06/07 00:04:07;;;;;;;1.13;0.50;;;13.40;57.30;;;;;;4992509;28;20109;-62
2022/06/07 00:06:34;;;;;;;0.85;0.38;;;13.50;57.40;;;;;;4992504;28;20049;-62
2022/06/07 00:09:02;;;;;;;2.55;0.32;;;13.60;57.20;;;;;;4997227;28;20018;-62
2022/06/07 00:11:29;;;;;;;1.83;0.60;;;13.70;55.60;;;;;;5012006;28;20038;-62
2022/06/07 00:13:56;;;;;;;1.45;0.52;;;13.80;55.20;;;;;;5011475;28;20018;-62
2022/06/07 00:16:24;;;;;;;1.95;0.57;;;13.90;55.60;;;;;;4993775;28;20022;-62
2022/06/07 00:18:51;;;;;;;4.55;0.50;;;13.90;56.90;;;;;;5005460;28;20034;-61
2022/06/07 00:21:18;;;;;;;1.15;0.70;;;14.10;56.00;;;;;;5010069;28;20029;-62
2022/06/07 00:23:45;;;;;;;1.65;0.40;;;14.20;55.40;;;;;;5011365;28;20026;-62
2022/06/07 00:26:13;;;;;;;2.58;0.82;;;14.30;55.30;;;;;;5011315;28;20018;-62
2022/06/07 00:28:40;;;;;;;3.40;0.65;;;14.30;55.00;;;;;;5012931;28;20032;-61
2022/06/07 00:31:08;;;;;;;18.80;6.68;;;14.40;54.50;;;;;;4992677;28;20038;-61
2022/06/07 00:33:35;;;;;;;2.15;1.00;;;14.50;53.10;;;;;;4993321;28;20433;-62
2022/06/07 00:36:03;;;;;;;3.47;1.08;;;14.50;52.50;;;;;;5010711;28;20088;-62
2022/06/07 00:38:30;;;;;;;1.30;0.50;;;14.60;53.20;;;;;;5011121;28;20037;-62
2022/06/07 00:40:58;;;;;;;0.50;0.35;;;14.70;53.80;;;;;;5010716;28;20026;-62
2022/06/07 00:43:26;;;;;;;0.38;0.30;;;14.70;52.20;;;;;;5011824;28;20025;-61
2022/06/07 00:45:53;;;;;;;0.95;0.30;;;14.80;52.00;;;;;;5012804;28;20021;-60
2022/06/07 00:48:20;;;;;;;3.90;0.20;;;14.90;51.40;;;;;;5007975;28;20076;-63
2022/06/07 00:50:50;;;;;;;0.68;0.22;;;14.90;51.30;;;;;;5015769;28;20037;-61
2022/06/07 00:53:25;;;;;;;1.35;0.30;;;14.90;51.70;;;;;;5016439;28;20037;-61
2022/06/07 00:55:53;;;;;;;0.45;0.22;;;15.00;51.50;;;;;;5018831;28;20148;-61
2022/06/07 00:58:21;;;;;;;0.40;0.30;;;15.00;50.80;;;;;;5007980;28;20042;-60
2022/06/07 01:00:48;;;;;;;1.02;0.93;;;15.10;50.40;;;;;;5020609;28;20038;-60
2022/06/07 01:03:18;;;;;;;0.50;0.30;;;15.10;51.20;;;;;;5018404;28;20037;-61
2022/06/07 01:05:45;;;;;;;1.13;0.43;;;15.10;50.10;;;;;;5015112;28;20041;-62
2022/06/07 01:10:57;;;;;;;2.05;0.43;;;15.20;51.00;;;;;;5008483;28;20465;-61
2022/06/07 01:13:31;;;;;;;1.13;0.30;;;15.30;50.10;;;;;;5023244;28;20026;-61
2022/06/07 01:16:08;;;;;;;0.63;0.20;;;15.40;51.10;;;;;;5021106;28;20028;-61
2022/06/07 01:18:36;;;;;;;0.30;0.20;;;15.40;50.00;;;;;;5013494;28;20084;-61
2022/06/07 01:21:28;;;;;;;1.15;0.30;;;15.50;50.30;;;;;;5013245;28;20560;-61
2022/06/07 01:23:56;;;;;;;0.45;0.20;;;15.50;49.90;;;;;;5008095;28;20049;-61
2022/06/07 01:26:23;;;;;;;0.63;0.20;;;15.50;48.90;;;;;;5018937;28;20076;-61
2022/06/07 01:28:51;;;;;;;0.68;0.20;;;15.50;49.30;;;;;;5016292;28;20060;-60
2022/06/07 01:31:19;;;;;;;0.38;0.20;;;15.40;50.00;;;;;;4998497;28;20034;-62
2022/06/07 01:33:46;;;;;;;0.82;0.20;;;15.50;48.80;;;;;;5022284;28;20033;-61
2022/06/07 01:36:16;;;;;;;2.50;0.57;;;15.60;48.80;;;;;;5021361;28;20049;-61
2022/06/07 01:38:45;;;;;;;1.13;0.30;;;15.70;48.60;;;;;;5014722;28;20542;-61
2022/06/07 01:43:59;;;;;;;0.75;0.30;;;15.80;47.50;;;;;;5025782;28;20056;-63
2022/06/07 01:46:27;;;;;;;4.63;0.40;;;15.90;48.20;;;;;;5002896;28;20021;-61
2022/06/07 01:48:54;;;;;;;6.47;0.50;;;16.00;47.20;;;;;;5021905;28;20116;-62
2022/06/07 01:51:21;;;;;;;0.55;0.30;;;16.00;47.30;;;;;;5011678;28;20116;-61
2022/06/07 01:53:48;;;;;;;3.65;0.40;;;16.00;47.60;;;;;;5010777;28;20083;-65
2022/06/07 01:56:17;;;;;;;0.20;0.20;;;15.90;47.60;;;;;;5017011;28;20132;-60
2022/06/07 01:58:45;;;;;;;0.20;0.20;;;16.00;47.70;;;;;;5021096;28;20041;-61
2022/06/07 02:01:13;;;;;;;0.30;0.30;;;16.00;46.40;;;;;;5012843;28;20108;-59
2022/06/07 02:03:42;;;;;;;6.50;0.63;;;16.00;46.80;;;;;;5017032;28;20562;-59
2022/06/07 02:06:12;;;;;;;0.08;0.08;;;16.00;46.40;;;;;;5019054;28;20387;-59
2022/06/07 02:08:41;;;;;;;0.50;0.10;;;15.90;47.20;;;;;;5016989;28;20093;-59
2022/06/07 02:11:11;;;;;;;0.13;0.13;;;15.80;46.50;;;;;;5011333;28;20025;-60
2022/06/07 02:13:40;;;;;;;0.25;0.10;;;15.90;47.40;;;;;;5009829;28;20095;-59
2022/06/07 02:16:08;;;;;;;0.50;0.28;;;15.90;46.90;;;;;;5011194;28;20069;-59
2022/06/07 02:18:36;;;;;;;0.80;0.20;;;15.90;48.20;;;;;;5010594;28;20026;-59
2022/06/07 02:21:04;;;;;;;0.15;0.13;;;16.10;49.10;;;;;;5010651;28;20418;-58
2022/06/07 02:23:33;;;;;;;5.57;0.40;;;16.20;47.90;;;;;;5010517;28;20055;-59
2022/06/07 02:26:08;;;;;;;0.43;0.20;;;16.30;48.50;;;;;;5010513;28;20171;-59
2022/06/07 02:28:37;;;;;;;;;;;16.40;46.30;;;;;;5009838;28;20026;-59
2022/06/07 02:31:05;;;;;;;5.57;0.40;;;16.40;46.60;;;;;;5010376;28;20397;-59
2022/06/07 02:33:34;;;;;;;0.20;0.20;;;16.60;46.50;;;;;;5010220;28;20033;-59
2022/06/07 02:36:01;;;;;;;0.43;0.22;;;16.60;46.50;;;;;;5010336;28;20056;-59
2022/06/07 02:38:28;;;;;;;0.47;0.30;;;16.70;45.60;;;;;;5010035;28;20034;-59
2022/06/07 02:40:56;;;;;;;2.05;0.80;;;16.70;45.60;;;;;;5021409;28;20087;-60
2022/06/07 02:43:23;;;;;;;1.90;0.32;;;16.80;45.60;;;;;;5009934;28;20022;-59
2022/06/07 02:45:50;;;;;;;1.67;0.63;;;16.80;44.80;;;;;;5010309;28;20034;-65
2022/06/07 02:48:17;;;;;;;0.68;0.50;;;16.80;45.00;;;;;;5009296;28;20042;-61
2022/06/07 02:50:44;;;;;;;0.85;0.40;;;16.70;44.70;;;;;;5009819;28;20161;-61
2022/06/07 02:53:13;;;;;;;1.85;0.50;;;16.60;44.80;;;;;;5016175;28;20418;-64
2022/06/07 02:55:40;;;;;;;2.97;1.30;;;16.30;44.80;;;;;;5008583;28;20132;-60
2022/06/07 02:58:08;;;;;;;0.90;0.45;;;16.30;46.60;;;;;;5010585;28;20026;-61
2022/06/07 03:00:35;;;;;;;0.75;0.70;;;16.30;46.70;;;;;;5009945;28;20099;-61
2022/06/07 03:03:02;;;;;;;1.08;0.77;;;16.50;46.20;;;;;;5009786;28;20088;-62
2022/06/07 03:05:30;;;;;;;1.20;0.40;;;16.40;45.40;;;;;;5008181;28;20018;-63
2022/06/07 03:07:57;;;;;;;0.45;0.45;;;16.40;46.20;;;;;;5008186;28;20025;-62
2022/06/07 03:10:24;;;;;;;1.98;0.10;;;16.40;46.30;;;;;;5008563;28;20068;-62
2022/06/07 03:12:51;;;;;;;0.82;0.20;;;16.40;45.70;;;;;;5008505;28;20045;-60
2022/06/07 03:15:19;;;;;;;0.60;0.35;;;16.40;45.10;;;;;;5010164;28;20467;-61
2022/06/07 03:17:46;;;;;;;1.75;0.20;;;16.10;44.20;;;;;;5010949;28;20100;-61
2022/06/07 03:20:14;;;;;;;1.05;0.22;;;15.90;44.80;;;;;;5025375;28;20025;-62
2022/06/07 03:22:42;;;;;;;1.02;0.28;;;16.00;45.20;;;;;;5013399;28;20033;-64
2022/06/07 03:25:11;;;;;;;1.25;0.30;;;16.00;44.80;;;;;;5019428;28;20116;-61
2022/06/07 03:27:39;;;;;;;0.20;0.20;;;16.10;45.20;;;;;;5010944;28;20052;-60
2022/06/07 03:30:09;;;;;;;0.50;0.30;;;16.10;44.10;;;;;;5000234;28;20034;-66
2022/06/07 03:32:38;;;;;;;0.95;0.22;;;16.10;44.80;;;;;;5016619;28;20083;-61
2022/06/07 03:35:06;;;;;;;0.10;0.10;;;16.10;44.60;;;;;;5019725;28;20029;-61
2022/06/07 03:37:34;;;;;;;0.47;0.20;;;16.10;45.00;;;;;;5009279;28;20018;-61
2022/06/07 03:40:01;;;;;;;1.27;0.20;;;16.10;45.20;;;;;;5009604;28;20032;-62
2022/06/07 03:42:29;;;;;;;0.30;0.25;;;16.10;45.90;;;;;;5009263;28;20185;-62
2022/06/07 03:44:56;;;;;;;0.73;0.30;;;16.10;44.90;;;;;;5009051;28;20030;-61
2022/06/07 03:47:24;;;;;;;0.20;0.17;;;16.10;45.00;;;;;;5009320;28;20105;-61
2022/06/07 03:49:51;;;;;;;0.65;0.13;;;16.00;45.50;;;;;;5009029;28;20510;-62
2022/06/07 03:52:19;;;;;;;0.90;0.22;;;15.90;45.40;;;;;;5009352;28;20026;-62
2022/06/07 03:54:49;;;;;;;1.42;0.73;;;16.00;45.60;;;;;;5007484;28;20029;-62
2022/06/07 03:57:17;;;;;;;0.30;0.30;;;16.10;45.70;;;;;;5018278;28;20090;-62
2022/06/07 03:59:44;;;;;;;1.83;0.80;;;16.10;45.60;;;;;;5017428;28;20036;-62
2022/06/07 04:02:11;;;;;;;1.15;0.47;;;16.20;45.80;;;;;;5010360;28;20034;-62
2022/06/07 04:04:38;;;;;;;1.95;0.43;;;16.20;44.90;;;;;;5018448;28;20221;-62
2022/06/07 04:09:51;;;;;;;6.82;0.30;;;16.10;45.10;;;;;;5011046;28;20053;-60
2022/06/07 04:12:19;;;;;;;0.85;0.40;;;16.00;45.30;;;;;;5009908;28;20030;-61
2022/06/07 04:14:46;;;;;;;2.13;0.60;;;16.00;45.80;;;;;;5019835;28;20034;-62
2022/06/07 04:17:14;;;;;;;1.15;0.40;;;15.90;46.60;;;;;;5008909;28;20029;-62
2022/06/07 04:19:43;;;;;;;0.85;0.30;;;15.80;47.40;;;;;;5011795;28;20026;-61
2022/06/07 04:22:20;;;;;;;0.95;0.47;;;15.90;48.20;;;;;;5019260;28;20025;-62
2022/06/07 04:24:48;;;;;;;0.43;0.30;;;15.90;47.80;;;;;;4991196;28;20036;-62
2022/06/07 04:27:15;;;;;;;2.15;0.30;;;15.90;48.10;;;;;;5006937;28;20018;-62
2022/06/07 04:29:42;;;;;;;0.90;0.40;;;15.80;47.40;;;;;;5013858;28;20056;-66
2022/06/07 04:32:11;;;;;;;0.77;0.30;;;15.80;47.40;;;;;;5014924;28;20052;-61
2022/06/07 04:34:39;;;;;;;0.60;0.40;;;15.70;47.10;;;;;;5017080;28;20028;-61
2022/06/07 04:37:06;;;;;;;2.10;0.50;;;15.60;47.40;;;;;;5007461;28;20066;-62
2022/06/07 04:39:34;;;;;;;1.02;0.45;;;15.60;47.10;;;;;;5019203;28;20025;-62
2022/06/07 04:42:01;;;;;;;0.73;0.63;;;15.60;47.00;;;;;;5020684;28;20026;-61
2022/06/07 04:44:30;;;;;;;2.80;0.70;;;15.50;47.60;;;;;;5023742;28;20041;-61
2022/06/07 04:46:57;;;;;;;1.30;0.65;;;15.50;47.50;;;;;;5013558;28;20030;-61
2022/06/07 04:49:27;;;;;;;0.95;0.73;;;15.40;48.70;;;;;;5011209;28;20045;-61
2022/06/07 04:51:54;;;;;;;0.55;0.30;;;15.40;48.00;;;;;;5011189;28;20028;-61
2022/06/07 04:54:21;;;;;;;0.90;0.30;;;15.30;47.60;;;;;;5011326;28;20041;-61
2022/06/07 04:56:49;;;;;;;0.47;0.25;;;15.30;46.80;;;;;;5012849;28;20029;-62
2022/06/07 04:59:16;;;;;;;0.20;0.20;;;15.00;47.80;;;;;;5011103;28;20040;-62
2022/06/07 05:01:44;;;;;;;0.63;0.40;;;14.80;48.30;;;;;;5012057;28;20030;-64
2022/06/07 05:04:12;;;;;;;1.23;0.38;;;14.70;48.90;;;;;;5012810;28;20100;-62
2022/06/07 05:06:41;;;;;;;0.20;0.20;;;14.60;49.70;;;;;;5012430;28;20041;-61
2022/06/07 05:09:22;;;;;;;3.90;0.28;;;14.60;49.70;;;;;;5012443;28;20045;-61
2022/06/07 05:11:50;;;;;;;0.90;0.30;;;14.60;50.40;;;;;;5011995;28;20030;-62
2022/06/07 05:14:18;;;;;;;0.65;0.30;;;14.70;51.00;;;;;;5011921;28;20025;-62
2022/06/07 05:16:48;;;;;;;0.70;0.50;;;14.70;49.70;;;;;;5011713;28;20037;-62
2022/06/07 05:19:16;;;;;;;1.77;0.50;;;14.70;50.20;;;;;;5011679;28;20041;-62
2022/06/07 05:21:44;;;;;;;2.75;0.43;;;14.80;50.60;;;;;;5012279;28;20041;-60
2022/06/07 05:24:12;;;;;;;3.20;0.60;;;14.70;48.60;;;;;;5011849;28;20053;-61
2022/06/07 05:26:39;;;;;;;3.08;0.47;;;14.60;48.80;;;;;;5025729;28;20025;-61
2022/06/07 05:29:11;;;;;;;0.82;0.30;;;14.50;49.00;;;;;;5011183;28;20024;-61
2022/06/07 05:31:38;;;;;;;0.80;0.40;;;14.40;50.00;;;;;;5011906;28;20033;-60
2022/06/07 05:34:05;;;;;;;0.93;0.50;;;14.30;50.90;;;;;;5010383;28;20460;-61
2022/06/07 05:36:33;;;;;;;3.08;1.40;;;14.20;50.10;;;;;;4993355;28;20018;-61
2022/06/07 05:39:03;;;;;;;1.42;0.50;;;14.10;50.70;;;;;;5011530;28;20033;-61
2022/06/07 05:41:32;;;;;;;2.67;0.65;;;14.00;51.20;;;;;;5011349;28;20049;-61
2022/06/07 05:44:00;;;;;;;2.72;0.57;;;13.90;51.60;;;;;;5011279;28;20076;-61
2022/06/07 05:46:27;;;;;;;1.20;0.47;;;13.80;51.80;;;;;;4993380;28;20487;-60
2022/06/07 05:48:54;;;;;;;1.40;0.60;;;13.70;52.60;;;;;;4994005;28;20051;-60
2022/06/07 05:51:21;;;;;;;0.93;0.50;;;13.60;52.20;;;;;;4972181;28;20042;-60
2022/06/07 05:53:52;;;;;;;1.55;0.60;;;13.60;52.50;;;;;;4970831;28;20023;-60
2022/06/07 05:56:19;;;;;;;0.50;0.45;;;13.50;53.00;;;;;;4987004;28;20106;-60
2022/06/07 05:58:48;;;;;;;0.40;0.40;;;13.40;52.60;;;;;;4976439;28;20026;-60
2022/06/07 06:01:17;;;;;;;0.50;0.30;;;13.40;52.00;;;;;;4985692;28;20032;-60
2022/06/07 06:03:44;;;;;;;0.20;0.20;;;13.40;51.80;;;;;;4979618;28;20058;-60
2022/06/07 06:06:13;;;;;;;0.20;0.20;;;13.30;52.30;;;;;;4974321;28;20038;-59
2022/06/07 06:11:28;;;;;;;0.65;0.30;;;13.30;51.90;;;;;;4958546;28;20041;-60
2022/06/07 06:13:55;;;;;;;0.35;0.20;;;13.30;52.10;;;;;;4971964;28;20019;-60
2022/06/07 06:16:23;;;;;;;0.70;0.60;;;13.20;52.40;;;;;;4978400;28;20033;-60
2022/06/07 06:18:53;;;;;;;1.83;0.20;;;13.10;52.50;;;;;;4978507;28;20037;-60
2022/06/07 06:21:23;;;;;;;1.58;0.50;;;13.10;53.30;;;;;;4974843;28;20030;-60
2022/06/07 06:23:51;;;;;;;0.85;0.40;;;13.00;53.90;;;;;;4970519;28;20029;-60
2022/06/07 06:26:21;;;;;;;0.45;0.28;;;12.90;53.70;;;;;;4965377;28;20054;-60
2022/06/07 06:28:52;;;;;;;0.55;0.32;;;12.90;53.70;;;;;;4971308;28;20485;-60
2022/06/07 06:31:20;;;;;;;2.90;0.30;;;12.80;53.70;;;;;;4969272;28;20037;-60
2022/06/07 06:33:50;;;;;;;0.70;0.30;;;12.70;54.70;;;;;;4960719;28;20030;-60
2022/06/07 06:36:20;;;;;;;0.35;0.15;;;12.60;54.90;;;;;;4970003;28;20085;-61
2022/06/07 06:38:48;;;;;;;0.57;0.30;;;12.50;55.40;;;;;;4968167;28;20034;-61
2022/06/07 06:41:27;;;;;;;1.55;0.30;;;12.30;55.90;;;;;;4967020;28;20038;-61
2022/06/07 06:44:02;;;;;;;0.73;0.40;;;12.20;56.00;;;;;;4961945;28;20056;-61
2022/06/07 06:46:35;;;;;;;1.75;0.65;;;12.10;56.40;;;;;;4971363;28;20031;-61
2022/06/07 06:49:03;;;;;;;0.80;0.30;;;11.90;57.10;;;;;;4984176;28;20044;-60
2022/06/07 06:51:32;;;;;;;2.13;1.33;;;11.70;57.80;;;;;;5002504;28;20052;-60
2022/06/07 06:54:01;;;;;;;2.55;0.45;;;11.50;58.20;;;;;;5000271;28;20028;-60
2022/06/07 06:56:29;;;;;;;0.75;0.40;;;11.30;59.00;;;;;;4995792;28;20026;-60
2022/06/07 06:58:58;;;;;;;1.42;0.52;;;11.10;59.60;;;;;;4988863;28;20034;-59
2022/06/07 07:01:31;;;;;;;1.60;0.43;;;10.90;59.90;;;;;;4989915;28;20066;-59
2022/06/07 07:04:01;;;;;;;4.38;0.73;;;10.80;60.80;;;;;;4997004;28;20478;-60
2022/06/07 07:06:29;;;;;;;1.55;0.80;;;10.70;61.50;;;;;;4994635;28;20478;-60
2022/06/07 07:08:58;;;;;;;1.80;1.00;;;10.70;61.20;;;;;;4990112;28;20026;-60
2022/06/07 07:11:28;;;;;;;1.88;1.00;;;10.60;61.40;;;;;;4989665;28;20045;-59
2022/06/07 07:14:00;;;;;;;2.83;1.00;;;10.60;61.80;;;;;;4989866;28;20034;-60
2022/06/07 07:16:30;;;;;;;1.33;0.80;;;10.60;62.10;;;;;;4990113;28;20022;-61
2022/06/07 07:18:58;;;;;;;0.80;0.50;;;10.50;61.80;;;;;;4989891;28;20015;-60
2022/06/07 07:21:29;;;;;;;1.33;0.70;;;10.50;61.90;;;;;;4989923;28;20084;-59
2022/06/07 07:23:58;;;;;;;3.17;0.70;;;10.40;62.00;;;;;;4989666;28;20109;-60
2022/06/07 07:26:29;;;;;;;3.38;0.60;;;10.40;62.60;;;;;;4987977;28;20151;-60
2022/06/07 07:28:56;;;;;;;2.08;1.00;;;10.30;62.80;;;;;;4989824;28;20443;-60
2022/06/07 07:31:27;;;;;;;6.03;2.00;;;10.30;63.10;;;;;;4990052;28;20502;-60
2022/06/07 07:33:54;;;;;;;11.88;5.25;;;10.30;63.20;;;;;;4990041;28;20082;-60
2022/06/07 07:36:22;;;;;;;6.88;2.97;;;10.30;63.20;;;;;;4989838;28;20068;-60
2022/06/07 07:38:50;;;;;;;6.60;2.15;;;10.40;63.30;;;;;;4989606;28;20037;-59
2022/06/07 07:41:37;;;;;;;3.70;1.48;;;10.40;63.30;;;;;;4988599;28;20065;-60
2022/06/07 07:44:06;;;;;;;3.97;1.58;;;10.50;63.70;;;;;;4989815;28;20200;-59
2022/06/07 07:46:36;;;;;;;2.53;0.95;;;10.60;63.30;;;;;;4988943;28;20506;-59
2022/06/07 07:49:06;;;;;;;2.45;0.85;;;10.80;62.80;;;;;;4999436;28;20705;-59
2022/06/07 07:51:40;;;;;;;2.25;1.23;;;10.90;62.20;;;;;;5008114;28;20034;-59
2022/06/07 07:54:10;;;;;;;1.92;1.05;;;11.10;62.30;;;;;;5003720;28;20026;-59
2022/06/07 07:56:38;;;;;;;1.45;0.63;;;11.40;61.20;;;;;;5007180;28;20037;-58
2022/06/07 07:59:08;;;;;;;4.70;0.65;;;11.60;60.70;;;;;;5007929;28;20487;-59
2022/06/07 08:01:36;;;;;;;3.17;0.73;;;11.70;61.70;;;;;;5007952;28;20072;-59
2022/06/07 08:04:04;;;;;;;0.80;0.50;;;11.70;63.80;;;;;;5006069;28;20041;-60
2022/06/07 08:06:33;;;;;;;1.20;0.47;;;11.50;65.00;;;;;;4991309;28;20487;-59
2022/06/07 08:09:03;;;;;;;0.30;0.22;;;11.40;65.00;;;;;;5009113;28;20030;-59
2022/06/07 08:11:34;;;;;;;0.38;0.20;;;11.30;66.00;;;;;;5009184;28;20049;-59
2022/06/07 08:14:02;;;;;;;0.60;0.30;;;11.20;66.80;;;;;;5011400;28;20030;-59
2022/06/07 08:16:31;;;;;;;1.40;0.32;;;11.00;67.10;;;;;;5012954;28;20045;-59
2022/06/07 08:18:59;;;;;;;0.30;0.30;;;10.80;67.80;;;;;;5012589;28;20105;-59
2022/06/07 08:21:28;;;;;;;1.17;0.50;;;10.60;68.70;;;;;;5012537;28;20061;-60
2022/06/07 08:23:56;;;;;;;0.65;0.40;;;10.60;69.20;;;;;;5012553;28;20065;-61
2022/06/07 08:26:26;;;;;;;0.50;0.30;;;10.40;70.10;;;;;;5009956;28;20017;-60
2022/06/07 08:28:54;;;;;;;0.57;0.40;;;10.30;70.70;;;;;;5012238;28;20033;-59
2022/06/07 08:31:27;;;;;;;0.98;0.50;;;10.20;71.60;;;;;;5009592;28;20125;-60
2022/06/07 08:39:28;;;;;;;3.97;1.20;;;9.80;73.20;;;;;;5015126;28;20058;-60
2022/06/07 08:41:58;;;;;;;1.05;0.50;;;9.70;73.40;;;;;;4994551;28;20029;-61
2022/06/07 08:44:42;;;;;;;3.17;0.77;;;9.60;74.00;;;;;;5011979;28;20757;-60
2022/06/07 08:47:28;;;;;;;1.63;0.82;;;9.50;74.80;;;;;;5011430;28;20026;-60
2022/06/07 08:49:58;;;;;;;1.13;0.60;;;9.40;74.40;;;;;;5011483;28;20057;-61
2022/06/07 08:52:36;;;;;;;1.65;0.60;;;9.10;74.90;;;;;;5011878;28;20025;-60
2022/06/07 08:55:13;;;;;;;0.80;0.50;;;8.90;75.30;;;;;;5013879;28;20022;-60
2022/06/07 08:57:41;;;;;;;2.00;0.75;;;8.80;76.60;;;;;;5011157;28;20092;-60
2022/06/07 09:00:16;;;;;;;1.10;0.55;;;8.80;77.50;;;;;;5009245;28;20045;-60
2022/06/07 09:02:43;;;;;;;;;;;8.70;77.60;;;;;;5012309;28;20068;-60
2022/06/07 09:05:16;;;;;;;0.68;0.50;;;8.50;77.10;;;;;;5011324;28;20425;-60
2022/06/07 09:07:44;;;;;;;3.78;0.70;;;8.40;77.40;;;;;;5011524;28;20605;-60
2022/06/07 09:13:21;;;;;;;2.38;0.70;;;8.20;78.90;;;;;;5022139;28;20437;-60
2022/06/07 09:15:55;;;;;;;1.45;0.88;;;8.10;79.80;;;;;;5010109;28;20041;-60
2022/06/07 09:18:29;;;;;;;1.98;0.80;;;8.10;80.20;;;;;;5012205;28;20033;-60
2022/06/07 09:21:03;;;;;;;1.48;0.80;;;8.00;80.30;;;;;;5007688;28;20036;-60
2022/06/07 09:23:43;;;;;;;1.23;0.60;;;8.00;81.20;;;;;;5016906;28;20037;-60
2022/06/07 09:26:36;;;;;;;1.27;0.65;;;8.00;80.70;;;;;;5016708;28;20022;-60
2022/06/07 09:29:34;;;;;;;1.50;0.60;;;8.00;80.90;;;;;;5010859;28;20083;-60
2022/06/07 09:32:01;;;;;;;1.02;0.65;;;8.00;81.00;;;;;;5015315;28;20125;-60
2022/06/07 09:34:30;;;;;;;2.90;0.80;;;8.10;80.40;;;;;;5007720;28;20061;-60
2022/06/07 09:37:04;;;;;;;0.77;0.50;;;8.10;80.00;;;;;;5007208;28;20022;-59
2022/06/07 09:39:38;;;;;;;1.73;0.68;;;8.20;79.70;;;;;;5009188;28;20072;-60
2022/06/07 09:42:26;;;;;;;3.97;0.98;;;8.10;79.60;;;;;;5005072;28;20220;-60
2022/06/07 09:44:58;;;;;;;1.00;0.70;;;8.10;79.40;;;;;;5007933;28;20026;-59
2022/06/07 09:47:28;;;;;;;1.58;0.90;;;8.20;79.20;;;;;;5006424;28;20034;-60
2022/06/07 09:50:11;;;;;;;2.05;0.75;;;8.20;78.40;;;;;;5005403;28;20057;-61
2022/06/07 09:53:15;;;;;;;1.50;0.60;;;8.20;78.50;;;;;;5006548;28;20034;-60
2022/06/07 09:56:21;;;;;;;0.77;0.50;;;8.20;78.70;;;;;;4961697;28;20419;-59
2022/06/07 09:59:06;;;;;;;1.17;0.63;;;8.30;78.00;;;;;;4974844;28;20502;-60
2022/06/07 10:01:58;;;;;;;1.17;0.70;;;8.20;78.00;;;;;;5010697;28;20036;-60
2022/06/07 10:04:38;;;;;;;1.00;0.60;;;8.20;78.20;;;;;;5006257;28;20041;-61
2022/06/07 10:07:31;;;;;;;1.10;0.50;;;8.10;77.50;;;;;;5003767;28;20122;-59
2022/06/07 10:10:23;;;;;;;1.85;0.57;;;8.00;78.00;;;;;;4997178;28;20042;-61
2022/06/07 10:13:25;;;;;;;0.30;0.30;;;7.80;78.50;;;;;;5002735;28;20109;-61
2022/06/07 10:16:05;;;;;;;0.88;0.47;;;7.70;79.60;;;;;;4996860;28;20064;-60
2022/06/07 10:18:39;;;;;;;2.08;0.70;;;7.60;79.40;;;;;;5003583;28;20031;-61
2022/06/07 10:21:12;;;;;;;1.00;0.70;;;7.40;79.60;;;;;;5005434;28;20228;-60
2022/06/07 10:23:59;;;;;;;0.95;0.55;;;7.30;80.00;;;;;;5006169;28;20034;-60
2022/06/07 10:26:26;;;;;;;1.67;0.75;;;7.10;81.00;;;;;;5000424;28;20042;-60
2022/06/07 10:29:03;;;;;;;2.25;0.70;;;7.10;82.10;;;;;;5004224;28;20061;-59
2022/06/07 10:31:49;;;;;;;1.27;0.80;;;7.10;82.50;;;;;;5005061;28;20073;-59
2022/06/07 10:34:35;;;;;;;1.63;0.80;;;7.10;82.10;;;;;;5004446;28;20225;-63
2022/06/07 10:37:03;;;;;;;2.45;0.70;;;7.00;81.70;;;;;;5005989;28;20116;-59
2022/06/07 10:39:44;;;;;;;2.97;2.33;;;6.90;82.10;;;;;;5005782;28;20036;-60
2022/06/07 10:42:20;;;;;;;2.72;0.90;;;6.90;82.90;;;;;;5005435;28;20399;-60
2022/06/07 10:45:11;;;;;;;1.77;0.98;;;6.90;83.20;;;;;;5005616;28;20101;-59
2022/06/07 10:47:59;;;;;;;1.83;0.98;;;6.80;82.90;;;;;;4991307;28;20048;-60
2022/06/07 10:50:44;;;;;;;3.55;0.85;;;6.80;82.30;;;;;;5005472;28;20049;-59
2022/06/07 10:53:20;;;;;;;1.10;0.90;;;6.80;84.00;;;;;;4990710;28;20065;-59
2022/06/07 10:56:25;;;;;;;1.40;0.60;;;6.90;83.40;;;;;;5005163;28;20117;-59
2022/06/07 10:58:54;;;;;;;1.15;0.63;;;7.00;82.90;;;;;;4987877;28;20034;-59
2022/06/07 11:01:40;;;;;;;2.33;0.80;;;7.00;82.10;;;;;;5005511;28;20703;-60
2022/06/07 11:09:19;;;;;;;1.23;0.52;;;6.90;81.70;;;;;;5004888;28;20076;-60
2022/06/07 11:09:54;;;;;;;3.33;1.40;;;6.80;82.20;;;;;;5004233;28;20076;-59
2022/06/07 11:12:44;;;;;;;4.38;0.93;;;6.80;83.50;;;;;;5004664;28;20034;-60
2022/06/07 11:15:15;;;;;;;2.47;1.10;;;6.80;82.50;;;;;;5004902;28;20103;-59
2022/06/07 11:18:03;;;;;;;5.78;2.38;;;6.80;82.30;;;;;;4994131;28;20029;-58
2022/06/07 11:20:34;;;;;;;4.20;2.17;;;6.60;82.00;;;;;;5001785;28;20030;-59
2022/06/07 11:23:20;;;;;;;5.90;1.40;;;6.40;82.50;;;;;;5005278;28;20112;-61
2022/06/07 11:26:06;;;;;;;2.00;1.08;;;6.30;84.00;;;;;;5005373;28;20025;-59
2022/06/07 11:28:42;;;;;;;2.47;1.10;;;6.20;83.80;;;;;;5005393;28;20064;-60
2022/06/07 11:31:36;;;;;;;1.80;1.02;;;6.00;84.30;;;;;;4988888;28;20037;-59
2022/06/07 11:34:10;;;;;;;3.17;1.40;;;5.90;84.40;;;;;;5004888;28;20568;-60
2022/06/07 11:36:42;;;;;;;2.78;1.30;;;5.70;85.10;;;;;;5004185;28;20030;-60
2022/06/07 11:39:24;;;;;;;4.40;1.58;;;5.60;85.70;;;;;;4989232;28;20030;-60
2022/06/07 11:42:06;;;;;;;2.83;1.67;;;5.40;86.60;;;;;;5004773;28;20374;-60
2022/06/07 11:44:42;;;;;;;2.33;1.35;;;5.30;87.00;;;;;;5001920;28;20026;-60
2022/06/07 11:47:14;;;;;;;3.58;1.08;;;5.20;87.30;;;;;;5010460;28;20136;-61
2022/06/07 11:50:03;;;;;;;3.05;1.73;;;5.20;87.70;;;;;;5008322;28;20085;-61
2022/06/07 11:52:34;;;;;;;5.57;2.00;;;5.10;88.10;;;;;;5005161;28;20545;-60
2022/06/07 11:55:15;;;;;;;3.08;1.77;;;5.00;89.00;;;;;;5003501;28;20042;-60
2022/06/07 11:58:04;;;;;;;3.00;1.50;;;5.00;89.50;;;;;;4994482;28;20368;-60
2022/06/07 12:00:32;;;;;;;3.42;1.65;;;4.90;89.60;;;;;;4999122;28;20033;-60
2022/06/07 12:03:05;;;;;;;3.85;1.58;;;4.90;89.70;;;;;;5003728;28;20578;-60
2022/06/07 12:05:46;;;;;;;3.13;1.50;;;4.80;89.20;;;;;;5004559;28;20030;-60
2022/06/07 12:08:51;;;;;;;2.28;1.50;;;4.70;90.00;;;;;;5006431;28;20038;-61
2022/06/07 12:11:32;;;;;;;2.17;1.35;;;4.70;90.20;;;;;;5011448;28;20509;-60
2022/06/07 12:14:05;;;;;;;2.55;1.30;;;4.60;90.20;;;;;;5011086;28;20034;-60
2022/06/07 12:16:52;;;;;;;4.22;1.80;;;4.60;90.40;;;;;;5015755;28;20502;-61
2022/06/07 12:19:34;;;;;;;3.83;1.70;;;4.60;90.70;;;;;;4985410;28;20022;-61
2022/06/07 12:22:23;;;;;;;3.05;1.23;;;4.50;90.50;;;;;;5009155;28;20545;-60
2022/06/07 12:25:21;;;;;;;3.80;1.60;;;4.50;91.30;;;;;;5007827;28;20356;-59
2022/06/07 12:27:55;;;;;;;2.08;0.95;;;4.50;91.30;;;;;;5018671;28;20426;-61
2022/06/07 12:30:33;;;;;;;2.08;1.40;;;4.50;91.00;;;;;;5008929;28;20034;-60
2022/06/07 12:33:23;;;;;;;2.95;1.30;;;4.50;90.80;;;;;;5015297;28;20026;-60
2022/06/07 12:35:59;;;;;;;2.05;1.02;;;4.40;90.80;;;;;;5013064;28;20061;-60
2022/06/07 12:38:29;;;;;;;2.03;1.25;;;4.40;90.90;;;;;;5007692;28;20026;-59
2022/06/07 13:00:19;;;;;;;4.75;2.10;;;4.70;91.30;;;;;;4993889;28;20045;-61
2022/06/07 13:03:22;;;;;;;2.20;1.05;;;4.80;90.80;;;;;;4987497;28;20030;-65
2022/06/07 13:19:17;;;;;;;2.95;1.00;;;5.70;86.10;;;;;;5012113;28;20052;-61
